createdAt,value
2022-09-26T00:00:24.888Z,8
2022-09-26T00:05:26.520Z,6
2022-09-26T00:10:28.217Z,6
2022-09-26T00:15:29.841Z,7
2022-09-26T00:20:31.443Z,5
2022-09-26T00:25:33.067Z,6
2022-09-26T00:30:34.795Z,6
2022-09-26T00:35:36.443Z,8
2022-09-26T00:40:38.061Z,6
2022-09-26T00:45:39.810Z,6
2022-09-26T00:50:41.494Z,6
2022-09-26T00:55:43.107Z,7
2022-09-26T01:00:44.711Z,8
2022-09-26T01:05:46.337Z,4
2022-09-26T01:10:48.071Z,10
2022-09-26T01:15:49.644Z,8
2022-09-26T01:20:51.308Z,7
2022-09-26T01:25:52.925Z,8
2022-09-26T01:30:54.597Z,7
2022-09-26T01:35:56.237Z,6
2022-09-26T01:40:57.868Z,8
2022-09-26T01:45:59.602Z,6
2022-09-26T01:51:01.277Z,7
2022-09-26T01:56:02.908Z,7
2022-09-26T02:01:04.592Z,7
2022-09-26T02:06:06.277Z,11
2022-09-26T02:11:07.863Z,8
2022-09-26T02:16:09.509Z,8
2022-09-26T02:21:11.162Z,7
2022-09-26T02:26:12.816Z,6
2022-09-26T02:31:14.671Z,7
2022-09-26T02:36:16.288Z,6
2022-09-26T02:41:18.258Z,7
2022-09-26T02:46:20.003Z,6
2022-09-26T02:51:21.656Z,6
2022-09-26T02:56:23.271Z,7
2022-09-26T03:01:24.959Z,7
2022-09-26T03:06:26.648Z,6
2022-09-26T03:11:28.245Z,5
2022-09-26T03:16:29.868Z,6
2022-09-26T03:21:36.186Z,8
2022-09-26T03:26:38.865Z,5
2022-09-26T03:31:40.607Z,5
2022-09-26T03:36:42.311Z,5
2022-09-26T03:41:44.255Z,8
2022-09-26T03:46:45.830Z,6
2022-09-26T03:51:47.453Z,6
2022-09-26T03:56:49.068Z,6
2022-09-26T04:01:50.708Z,6
2022-09-26T04:06:52.342Z,5
2022-09-26T04:11:53.934Z,3
2022-09-26T04:16:55.562Z,4
2022-09-26T04:21:57.242Z,5
2022-09-26T04:26:58.815Z,6
2022-09-26T04:32:00.787Z,6
2022-09-26T04:37:02.505Z,3
2022-09-26T04:42:04.147Z,5
2022-09-26T04:47:05.816Z,3
2022-09-26T04:52:07.460Z,5
2022-09-26T04:57:09.217Z,5
2022-09-26T05:02:11.006Z,4
2022-09-26T05:07:12.686Z,5
2022-09-26T05:12:14.282Z,5
2022-09-26T05:17:16.123Z,5
2022-09-26T05:22:17.725Z,6
2022-09-26T05:27:19.420Z,7
2022-09-26T05:32:21.058Z,7
2022-09-26T05:37:22.673Z,7
2022-09-26T05:42:24.261Z,6
2022-09-26T05:47:25.894Z,8
2022-09-26T05:52:27.478Z,6
2022-09-26T05:57:29.098Z,8
2022-09-26T06:02:30.739Z,8
2022-09-26T06:07:32.349Z,8
2022-09-26T06:12:33.958Z,9
2022-09-26T06:17:35.546Z,6
2022-09-26T06:22:37.184Z,5
2022-09-26T06:27:38.786Z,7
2022-09-26T06:32:40.413Z,11
2022-09-26T06:37:42.057Z,11
2022-09-26T06:42:43.626Z,9
2022-09-26T06:47:45.248Z,10
2022-09-26T06:52:46.844Z,9
2022-09-26T06:57:48.437Z,3
2022-09-26T07:02:50.064Z,17
2022-09-26T07:07:51.665Z,5
2022-09-26T07:12:53.262Z,7
2022-09-26T07:17:54.858Z,6
2022-09-26T07:22:56.460Z,8
2022-09-26T07:27:58.095Z,6
2022-09-26T07:32:59.709Z,5
2022-09-26T07:38:01.339Z,6
2022-09-26T07:43:19.637Z,6
2022-09-26T07:48:21.999Z,8
2022-09-26T07:53:23.607Z,8
2022-09-26T07:58:25.306Z,6
2022-09-26T08:03:26.902Z,7
2022-09-26T08:08:28.544Z,7
2022-09-26T08:13:30.151Z,6
2022-09-26T08:18:31.794Z,7
2022-09-26T08:23:33.415Z,6
2022-09-26T08:28:34.996Z,6
2022-09-26T08:33:36.609Z,7
2022-09-26T08:38:38.181Z,9
2022-09-26T08:43:39.790Z,9
2022-09-26T08:48:41.398Z,5
2022-09-26T08:53:42.975Z,9
2022-09-26T08:58:44.549Z,8
2022-09-26T09:03:46.165Z,7
2022-09-26T09:08:47.779Z,6
2022-09-26T09:13:49.401Z,6
2022-09-26T09:18:51.028Z,7
2022-09-26T09:23:52.668Z,5
2022-09-26T09:28:54.308Z,4
2022-09-26T09:33:55.893Z,4
2022-09-26T09:38:57.533Z,4
2022-09-26T09:43:59.134Z,6
2022-09-26T09:49:00.715Z,5
2022-09-26T09:54:02.291Z,7
2022-09-26T09:59:03.912Z,6
2022-09-26T10:04:05.766Z,5
2022-09-26T10:09:36.480Z,5
2022-09-26T10:14:41.471Z,4
2022-09-26T10:19:43.029Z,8
2022-09-26T10:24:44.772Z,7
2022-09-26T10:29:46.370Z,7
2022-09-26T10:34:48.129Z,6
2022-09-26T10:39:49.754Z,7
2022-09-26T10:44:51.319Z,9
2022-09-26T10:49:52.925Z,10
2022-09-26T10:54:54.663Z,8
2022-09-26T10:59:56.273Z,9
2022-09-26T11:04:57.892Z,10
2022-09-26T11:09:59.473Z,4
2022-09-26T11:15:01.095Z,5
2022-09-26T11:20:03.523Z,8
2022-09-26T11:25:05.266Z,7
2022-09-26T11:30:06.835Z,7
2022-09-26T11:35:08.451Z,8
2022-09-26T11:40:10.237Z,7
2022-09-26T11:45:11.914Z,7
2022-09-26T11:50:13.665Z,7
2022-09-26T11:55:15.296Z,7
2022-09-26T12:00:16.912Z,7
2022-09-26T12:05:18.510Z,10
2022-09-26T12:10:20.108Z,34
2022-09-26T12:15:21.703Z,15
2022-09-26T12:20:23.312Z,21
2022-09-26T12:25:24.929Z,34
2022-09-26T12:30:26.605Z,16
2022-09-26T12:35:28.196Z,22
2022-09-26T12:40:29.844Z,26
2022-09-26T12:45:31.577Z,10
2022-09-26T12:50:33.196Z,10
2022-09-26T12:55:34.888Z,12
2022-09-26T13:00:36.519Z,12
2022-09-26T13:05:38.128Z,9
2022-09-26T13:10:39.745Z,7
2022-09-26T13:15:41.395Z,9
2022-09-26T13:20:43.021Z,10
2022-09-26T13:25:49.264Z,7
2022-09-26T13:30:51.468Z,9
2022-09-26T13:35:53.145Z,11
2022-09-26T13:40:54.825Z,11
2022-09-26T13:45:56.556Z,10
2022-09-26T13:50:58.251Z,11
2022-09-26T13:55:59.901Z,9
2022-09-26T14:01:01.548Z,7
2022-09-26T14:06:03.171Z,9
2022-09-26T14:11:04.822Z,9
2022-09-26T14:16:06.520Z,12
2022-09-26T14:21:08.210Z,8
2022-09-26T14:26:09.820Z,10
2022-09-26T14:31:11.575Z,9
2022-09-26T14:36:13.241Z,9
2022-09-26T14:41:14.874Z,8
2022-09-26T14:46:16.522Z,10
2022-09-26T14:51:18.185Z,11
2022-09-26T14:56:19.793Z,12
2022-09-26T15:01:21.540Z,12
2022-09-26T15:06:23.206Z,14
2022-09-26T15:11:24.797Z,13
2022-09-26T15:16:26.461Z,12
2022-09-26T15:21:28.185Z,14
2022-09-26T15:26:29.809Z,15
2022-09-26T15:31:31.561Z,16
2022-09-26T15:36:33.250Z,13
2022-09-26T15:41:34.894Z,10
2022-09-26T15:46:36.647Z,8
2022-09-26T15:51:38.365Z,9
2022-09-26T15:56:40.053Z,10
2022-09-26T16:01:41.760Z,7
2022-09-26T16:06:43.398Z,8
2022-09-26T16:11:45.045Z,7
2022-09-26T16:16:46.662Z,9
2022-09-26T16:21:48.281Z,10
2022-09-26T16:26:49.870Z,10
2022-09-26T16:31:51.468Z,9
2022-09-26T16:36:53.125Z,12
2022-09-26T16:42:01.295Z,8
2022-09-26T16:47:04.368Z,8
2022-09-26T16:52:05.950Z,9
2022-09-26T16:57:07.579Z,12
2022-09-26T17:02:09.195Z,10
2022-09-26T17:07:10.778Z,10
2022-09-26T17:12:12.401Z,8
2022-09-26T17:17:14.030Z,10
2022-09-26T17:22:15.662Z,12
2022-09-26T17:27:17.283Z,7
2022-09-26T17:32:18.903Z,9
2022-09-26T17:37:20.546Z,10
2022-09-26T17:42:22.177Z,9
2022-09-26T17:47:23.795Z,9
2022-09-26T17:52:25.411Z,12
2022-09-26T17:57:27.039Z,10
2022-09-26T18:02:28.665Z,10
2022-09-26T18:07:30.371Z,15
2022-09-26T18:12:32.028Z,13
2022-09-26T18:17:33.614Z,17
2022-09-26T18:22:35.251Z,17
2022-09-26T18:27:36.950Z,15
2022-09-26T18:32:38.539Z,17
2022-09-26T18:37:40.095Z,13
2022-09-26T18:42:41.726Z,14
2022-09-26T18:47:43.380Z,14
2022-09-26T18:52:45.014Z,14
2022-09-26T18:57:46.711Z,13
2022-09-26T19:02:48.515Z,19
2022-09-26T19:07:50.133Z,12
2022-09-26T19:12:51.775Z,13
2022-09-26T19:17:53.380Z,14
2022-09-26T19:22:54.965Z,13
2022-09-26T19:27:56.553Z,13
2022-09-26T19:32:58.156Z,12
2022-09-26T19:37:59.771Z,13
2022-09-26T19:43:01.363Z,10
2022-09-26T19:48:03.051Z,13
2022-09-26T19:53:04.708Z,10
2022-09-26T19:58:06.303Z,12
2022-09-26T20:03:07.981Z,12
2022-09-26T20:08:09.690Z,12
2022-09-26T20:13:11.350Z,15
2022-09-26T20:18:12.940Z,13
2022-09-26T20:23:14.570Z,15
2022-09-26T20:28:16.186Z,14
2022-09-26T20:33:17.775Z,13
2022-09-26T20:38:19.365Z,12
2022-09-26T20:43:20.967Z,14
2022-09-26T20:48:22.585Z,15
2022-09-26T20:53:24.148Z,17
2022-09-26T20:58:25.765Z,14
2022-09-26T21:03:27.485Z,13
2022-09-26T21:08:29.065Z,14
2022-09-26T21:13:30.677Z,14
2022-09-26T21:18:32.292Z,16
2022-09-26T21:23:33.997Z,13
2022-09-26T21:28:35.585Z,13
2022-09-26T21:33:37.223Z,18
2022-09-26T21:38:38.819Z,17
2022-09-26T21:43:40.426Z,12
2022-09-26T21:48:42.022Z,19
2022-09-26T21:53:43.621Z,15
2022-09-26T21:58:45.230Z,14
2022-09-26T22:03:46.865Z,13
2022-09-26T22:08:48.444Z,13
2022-09-26T22:13:50.245Z,16
2022-09-26T22:18:51.877Z,9
2022-09-26T22:23:53.457Z,13
2022-09-26T22:28:55.058Z,12
2022-09-26T22:33:56.675Z,11
2022-09-26T22:38:58.307Z,11
2022-09-26T22:43:59.940Z,10
2022-09-26T22:49:01.644Z,17
2022-09-26T22:54:03.283Z,10
2022-09-26T22:59:04.869Z,11
2022-09-26T23:04:06.537Z,12
2022-09-26T23:09:08.213Z,11
2022-09-26T23:14:09.870Z,11
2022-09-26T23:19:11.498Z,12
2022-09-26T23:24:13.048Z,12
2022-09-26T23:29:14.714Z,11
2022-09-26T23:34:16.317Z,10
2022-09-26T23:39:17.916Z,9
2022-09-26T23:44:19.566Z,12
2022-09-26T23:49:21.167Z,9
2022-09-26T23:54:22.846Z,11
2022-09-26T23:59:24.468Z,11
